sensor_id;sensor_type;location;lat;lon;timestamp;pressure;altitude;pressure_sealevel;temperature;humidity
81230;BME280;70701;44.452;18.652;2023-08-20T00:00:26;99323.44;;;21.45;78.39
81230;BME280;70701;44.452;18.652;2023-08-20T00:03:03;99329.25;;;21.30;79.36
81230;BME280;70701;44.452;18.652;2023-08-20T00:05:32;99333.34;;;21.29;79.43
81230;BME280;70701;44.452;18.652;2023-08-20T00:07:58;99333.63;;;21.31;79.29
81230;BME280;70701;44.452;18.652;2023-08-20T00:10:24;99332.81;;;21.25;79.35
81230;BME280;70701;44.452;18.652;2023-08-20T00:12:49;99333.06;;;21.27;79.17
81230;BME280;70701;44.452;18.652;2023-08-20T00:15:15;99339.91;;;21.15;79.47
81230;BME280;70701;44.452;18.652;2023-08-20T00:17:41;99331.66;;;21.11;79.83
81230;BME280;70701;44.452;18.652;2023-08-20T00:20:08;99343.41;;;21.30;79.89
81230;BME280;70701;44.452;18.652;2023-08-20T00:22:42;99340.63;;;21.36;78.88
81230;BME280;70701;44.452;18.652;2023-08-20T00:25:11;99355.81;;;21.39;79.02
81230;BME280;70701;44.452;18.652;2023-08-20T00:27:38;99351.59;;;21.60;78.16
81230;BME280;70701;44.452;18.652;2023-08-20T00:30:04;99347.38;;;21.44;78.73
81230;BME280;70701;44.452;18.652;2023-08-20T00:32:30;99355.81;;;21.39;78.59
81230;BME280;70701;44.452;18.652;2023-08-20T00:34:56;99346.97;;;21.25;79.37
81230;BME280;70701;44.452;18.652;2023-08-20T00:37:23;99353.94;;;20.98;80.21
81230;BME280;70701;44.452;18.652;2023-08-20T00:39:49;99350.00;;;21.16;79.60
81230;BME280;70701;44.452;18.652;2023-08-20T00:42:14;99345.91;;;21.23;78.99
81230;BME280;70701;44.452;18.652;2023-08-20T00:44:41;99329.34;;;21.10;79.04
81230;BME280;70701;44.452;18.652;2023-08-20T00:47:10;99339.41;;;21.16;79.05
81230;BME280;70701;44.452;18.652;2023-08-20T00:49:36;99347.81;;;21.37;78.76
81230;BME280;70701;44.452;18.652;2023-08-20T00:52:03;99329.38;;;21.15;79.27
81230;BME280;70701;44.452;18.652;2023-08-20T00:54:31;99349.19;;;20.84;80.64
81230;BME280;70701;44.452;18.652;2023-08-20T00:56:59;99360.19;;;21.02;80.36
81230;BME280;70701;44.452;18.652;2023-08-20T00:59:25;99369.44;;;21.03;80.19
81230;BME280;70701;44.452;18.652;2023-08-20T01:01:51;99330.75;;;20.94;79.89
81230;BME280;70701;44.452;18.652;2023-08-20T01:04:17;99348.22;;;20.92;80.69
81230;BME280;70701;44.452;18.652;2023-08-20T01:06:58;99353.22;;;21.03;80.67
81230;BME280;70701;44.452;18.652;2023-08-20T01:12:22;99335.03;;;20.84;80.47
81230;BME280;70701;44.452;18.652;2023-08-20T01:14:48;99343.53;;;20.84;80.71
81230;BME280;70701;44.452;18.652;2023-08-20T01:17:14;99330.25;;;20.95;79.55
81230;BME280;70701;44.452;18.652;2023-08-20T01:19:40;99350.00;;;20.90;80.03
81230;BME280;70701;44.452;18.652;2023-08-20T01:30:03;99356.69;;;21.19;78.95
81230;BME280;70701;44.452;18.652;2023-08-20T01:32:30;99362.00;;;21.37;78.20
81230;BME280;70701;44.452;18.652;2023-08-20T01:34:56;99348.09;;;21.39;77.89
81230;BME280;70701;44.452;18.652;2023-08-20T01:37:22;99351.00;;;21.45;77.75
81230;BME280;70701;44.452;18.652;2023-08-20T01:39:49;99352.31;;;21.49;77.64
81230;BME280;70701;44.452;18.652;2023-08-20T01:42:15;99352.81;;;21.48;77.48
81230;BME280;70701;44.452;18.652;2023-08-20T01:44:41;99337.97;;;21.27;78.20
81230;BME280;70701;44.452;18.652;2023-08-20T01:47:07;99350.78;;;21.22;78.67
81230;BME280;70701;44.452;18.652;2023-08-20T01:49:32;99350.94;;;21.07;78.80
81230;BME280;70701;44.452;18.652;2023-08-20T01:51:59;99338.50;;;20.99;79.31
81230;BME280;70701;44.452;18.652;2023-08-20T01:54:24;99343.72;;;21.06;78.85
81230;BME280;70701;44.452;18.652;2023-08-20T01:56:51;99336.59;;;21.16;78.54
81230;BME280;70701;44.452;18.652;2023-08-20T01:59:17;99346.97;;;21.25;78.53
81230;BME280;70701;44.452;18.652;2023-08-20T02:01:44;99331.06;;;21.02;78.92
81230;BME280;70701;44.452;18.652;2023-08-20T02:04:09;99339.78;;;20.98;79.36
81230;BME280;70701;44.452;18.652;2023-08-20T02:06:35;99334.75;;;20.82;80.11
81230;BME280;70701;44.452;18.652;2023-08-20T02:09:01;99335.44;;;20.71;80.56
81230;BME280;70701;44.452;18.652;2023-08-20T02:11:26;99294.00;;;20.47;80.25
81230;BME280;70701;44.452;18.652;2023-08-20T02:13:52;99316.16;;;20.28;81.62
81230;BME280;70701;44.452;18.652;2023-08-20T02:16:18;99321.88;;;20.34;81.92
81230;BME280;70701;44.452;18.652;2023-08-20T02:18:44;99351.28;;;20.63;80.87
81230;BME280;70701;44.452;18.652;2023-08-20T02:21:09;99339.03;;;20.71;80.67
81230;BME280;70701;44.452;18.652;2023-08-20T02:23:35;99328.22;;;20.49;81.04
81230;BME280;70701;44.452;18.652;2023-08-20T02:26:00;99347.72;;;20.21;82.38
81230;BME280;70701;44.452;18.652;2023-08-20T02:28:29;99331.47;;;20.16;82.26
81230;BME280;70701;44.452;18.652;2023-08-20T02:30:54;99342.72;;;19.90;83.30
81230;BME280;70701;44.452;18.652;2023-08-20T02:33:20;99340.78;;;20.22;82.13
81230;BME280;70701;44.452;18.652;2023-08-20T02:35:45;99338.03;;;20.28;81.29
81230;BME280;70701;44.452;18.652;2023-08-20T02:38:11;99347.13;;;20.37;81.56
81230;BME280;70701;44.452;18.652;2023-08-20T02:40:40;99339.28;;;20.27;81.55
81230;BME280;70701;44.452;18.652;2023-08-20T02:43:06;99330.03;;;19.85;82.49
81230;BME280;70701;44.452;18.652;2023-08-20T02:45:32;99346.88;;;19.94;83.47
81230;BME280;70701;44.452;18.652;2023-08-20T02:47:58;99355.41;;;20.00;83.07
81230;BME280;70701;44.452;18.652;2023-08-20T02:50:23;99343.63;;;20.02;82.78
81230;BME280;70701;44.452;18.652;2023-08-20T02:52:49;99355.44;;;20.20;82.37
81230;BME280;70701;44.452;18.652;2023-08-20T02:55:14;99344.03;;;20.35;81.40
81230;BME280;70701;44.452;18.652;2023-08-20T02:57:40;99359.81;;;20.42;81.36
81230;BME280;70701;44.452;18.652;2023-08-20T03:00:06;99346.22;;;20.46;80.96
81230;BME280;70701;44.452;18.652;2023-08-20T03:02:36;99349.69;;;20.35;81.19
81230;BME280;70701;44.452;18.652;2023-08-20T03:05:02;99368.16;;;20.57;80.97
81230;BME280;70701;44.452;18.652;2023-08-20T03:07:31;99371.44;;;20.70;80.13
81230;BME280;70701;44.452;18.652;2023-08-20T03:09:57;99361.72;;;20.77;79.99
81230;BME280;70701;44.452;18.652;2023-08-20T03:12:23;99362.50;;;20.77;79.70
81230;BME280;70701;44.452;18.652;2023-08-20T03:14:49;99362.28;;;20.81;79.87
81230;BME280;70701;44.452;18.652;2023-08-20T03:17:14;99361.44;;;20.75;79.28
81230;BME280;70701;44.452;18.652;2023-08-20T03:19:57;99348.00;;;20.70;79.80
81230;BME280;70701;44.452;18.652;2023-08-20T03:22:24;99355.78;;;20.75;79.50
81230;BME280;70701;44.452;18.652;2023-08-20T03:24:50;99357.63;;;20.78;79.49
81230;BME280;70701;44.452;18.652;2023-08-20T03:27:16;99356.88;;;20.83;78.99
81230;BME280;70701;44.452;18.652;2023-08-20T03:29:41;99362.03;;;20.58;80.26
81230;BME280;70701;44.452;18.652;2023-08-20T03:32:07;99350.38;;;20.51;80.24
81230;BME280;70701;44.452;18.652;2023-08-20T03:34:33;99364.88;;;20.38;81.24
81230;BME280;70701;44.452;18.652;2023-08-20T03:36:58;99354.09;;;20.16;81.73
81230;BME280;70701;44.452;18.652;2023-08-20T03:39:25;99346.16;;;20.20;81.19
81230;BME280;70701;44.452;18.652;2023-08-20T03:41:52;99366.59;;;20.09;81.81
81230;BME280;70701;44.452;18.652;2023-08-20T03:44:18;99361.22;;;20.11;82.04
81230;BME280;70701;44.452;18.652;2023-08-20T03:46:44;99361.50;;;20.34;81.15
81230;BME280;70701;44.452;18.652;2023-08-20T03:49:11;99364.94;;;20.44;79.91
81230;BME280;70701;44.452;18.652;2023-08-20T03:51:38;99370.88;;;20.46;79.75
81230;BME280;70701;44.452;18.652;2023-08-20T03:54:04;99365.69;;;20.38;79.75
81230;BME280;70701;44.452;18.652;2023-08-20T03:56:29;99367.63;;;20.32;79.79
81230;BME280;70701;44.452;18.652;2023-08-20T03:58:55;99370.69;;;20.29;80.11
81230;BME280;70701;44.452;18.652;2023-08-20T04:01:21;99360.81;;;20.18;79.98
81230;BME280;70701;44.452;18.652;2023-08-20T04:03:47;99363.69;;;20.24;80.25
81230;BME280;70701;44.452;18.652;2023-08-20T04:06:14;99368.50;;;20.18;80.56
81230;BME280;70701;44.452;18.652;2023-08-20T04:08:40;99364.97;;;20.23;80.28
81230;BME280;70701;44.452;18.652;2023-08-20T04:11:06;99372.47;;;20.26;80.25
81230;BME280;70701;44.452;18.652;2023-08-20T04:13:32;99370.06;;;20.19;80.38
81230;BME280;70701;44.452;18.652;2023-08-20T04:15:58;99360.09;;;20.03;80.40
81230;BME280;70701;44.452;18.652;2023-08-20T04:18:24;99369.69;;;20.11;80.63
81230;BME280;70701;44.452;18.652;2023-08-20T04:20:52;99388.16;;;20.27;80.05
81230;BME280;70701;44.452;18.652;2023-08-20T04:23:19;99360.72;;;20.13;80.13
81230;BME280;70701;44.452;18.652;2023-08-20T04:25:45;99382.06;;;20.14;80.77
81230;BME280;70701;44.452;18.652;2023-08-20T04:28:14;99378.97;;;20.12;80.41
81230;BME280;70701;44.452;18.652;2023-08-20T04:30:39;99378.41;;;20.28;80.21
81230;BME280;70701;44.452;18.652;2023-08-20T04:33:06;99388.78;;;20.37;80.04
81230;BME280;70701;44.452;18.652;2023-08-20T04:35:33;99372.38;;;20.41;79.82
81230;BME280;70701;44.452;18.652;2023-08-20T04:37:59;99380.94;;;20.47;79.56
81230;BME280;70701;44.452;18.652;2023-08-20T04:40:26;99367.63;;;20.32;80.10
81230;BME280;70701;44.452;18.652;2023-08-20T04:42:52;99362.72;;;20.27;80.12
81230;BME280;70701;44.452;18.652;2023-08-20T04:45:17;99366.53;;;20.04;81.48
81230;BME280;70701;44.452;18.652;2023-08-20T04:47:46;99380.44;;;20.07;81.68
81230;BME280;70701;44.452;18.652;2023-08-20T04:50:12;99389.00;;;19.92;82.11
81230;BME280;70701;44.452;18.652;2023-08-20T04:52:41;99379.53;;;20.16;81.50
81230;BME280;70701;44.452;18.652;2023-08-20T04:55:08;99378.59;;;20.04;81.69
81230;BME280;70701;44.452;18.652;2023-08-20T04:57:34;99387.44;;;20.12;81.47
81230;BME280;70701;44.452;18.652;2023-08-20T05:00:02;99356.78;;;19.69;82.30
81230;BME280;70701;44.452;18.652;2023-08-20T05:02:40;99374.66;;;19.96;82.18
81230;BME280;70701;44.452;18.652;2023-08-20T05:05:06;99388.81;;;20.16;81.72
81230;BME280;70701;44.452;18.652;2023-08-20T05:07:33;99387.09;;;20.45;80.32
81230;BME280;70701;44.452;18.652;2023-08-20T05:09:58;99359.38;;;20.29;79.61
81230;BME280;70701;44.452;18.652;2023-08-20T05:12:24;99394.66;;;20.54;80.22
81230;BME280;70701;44.452;18.652;2023-08-20T05:14:50;99390.53;;;20.34;80.83
81230;BME280;70701;44.452;18.652;2023-08-20T05:17:16;99388.59;;;20.41;80.71
81230;BME280;70701;44.452;18.652;2023-08-20T05:19:43;99385.41;;;20.53;80.33
81230;BME280;70701;44.452;18.652;2023-08-20T05:22:08;99374.94;;;20.18;81.40
81230;BME280;70701;44.452;18.652;2023-08-20T05:24:36;99384.47;;;20.21;81.84
81230;BME280;70701;44.452;18.652;2023-08-20T05:27:10;99383.34;;;20.54;80.91
81230;BME280;70701;44.452;18.652;2023-08-20T05:29:37;99395.03;;;20.88;79.39
81230;BME280;70701;44.452;18.652;2023-08-20T05:32:04;99375.88;;;20.77;79.08
81230;BME280;70701;44.452;18.652;2023-08-20T05:34:30;99382.78;;;20.50;80.76
81230;BME280;70701;44.452;18.652;2023-08-20T05:36:55;99398.63;;;20.88;79.72
81230;BME280;70701;44.452;18.652;2023-08-20T05:39:22;99388.53;;;21.08;78.69
81230;BME280;70701;44.452;18.652;2023-08-20T05:41:48;99393.84;;;21.26;78.50
81230;BME280;70701;44.452;18.652;2023-08-20T05:44:14;99388.44;;;21.28;78.44
81230;BME280;70701;44.452;18.652;2023-08-20T05:46:40;99386.19;;;21.32;78.96
81230;BME280;70701;44.452;18.652;2023-08-20T05:49:06;99391.56;;;21.30;78.97
81230;BME280;70701;44.452;18.652;2023-08-20T05:51:33;99401.59;;;21.31;79.12
81230;BME280;70701;44.452;18.652;2023-08-20T05:53:59;99393.38;;;21.33;79.34
81230;BME280;70701;44.452;18.652;2023-08-20T05:56:26;99387.94;;;21.30;79.47
81230;BME280;70701;44.452;18.652;2023-08-20T05:58:52;99406.06;;;21.38;79.47
81230;BME280;70701;44.452;18.652;2023-08-20T06:01:18;99378.69;;;21.29;78.68
81230;BME280;70701;44.452;18.652;2023-08-20T06:03:45;99392.78;;;21.50;78.77
81230;BME280;70701;44.452;18.652;2023-08-20T06:06:10;99408.53;;;21.57;79.02
81230;BME280;70701;44.452;18.652;2023-08-20T06:08:36;99413.97;;;21.60;78.85
81230;BME280;70701;44.452;18.652;2023-08-20T06:11:01;99408.56;;;21.62;78.69
81230;BME280;70701;44.452;18.652;2023-08-20T06:13:27;99411.00;;;21.81;77.63
81230;BME280;70701;44.452;18.652;2023-08-20T06:15:53;99419.09;;;21.93;76.90
81230;BME280;70701;44.452;18.652;2023-08-20T06:18:18;99386.81;;;21.85;77.13
81230;BME280;70701;44.452;18.652;2023-08-20T06:20:44;99388.41;;;21.92;76.63
81230;BME280;70701;44.452;18.652;2023-08-20T06:23:10;99418.97;;;22.20;76.40
81230;BME280;70701;44.452;18.652;2023-08-20T06:25:35;99418.22;;;22.25;75.83
81230;BME280;70701;44.452;18.652;2023-08-20T06:28:01;99422.28;;;22.12;76.24
81230;BME280;70701;44.452;18.652;2023-08-20T06:30:26;99417.47;;;22.24;75.71
81230;BME280;70701;44.452;18.652;2023-08-20T06:32:52;99404.53;;;22.18;75.74
81230;BME280;70701;44.452;18.652;2023-08-20T06:35:18;99427.06;;;22.32;76.13
81230;BME280;70701;44.452;18.652;2023-08-20T06:37:43;99425.06;;;22.50;75.07
81230;BME280;70701;44.452;18.652;2023-08-20T06:40:09;99425.56;;;22.43;75.83
81230;BME280;70701;44.452;18.652;2023-08-20T06:42:35;99414.78;;;22.52;75.08
81230;BME280;70701;44.452;18.652;2023-08-20T06:45:01;99429.31;;;22.83;74.29
81230;BME280;70701;44.452;18.652;2023-08-20T06:47:26;99434.69;;;22.69;74.29
81230;BME280;70701;44.452;18.652;2023-08-20T06:49:52;99433.69;;;22.89;73.98
81230;BME280;70701;44.452;18.652;2023-08-20T06:52:17;99439.13;;;22.93;74.05
81230;BME280;70701;44.452;18.652;2023-08-20T06:54:44;99433.47;;;22.99;73.60
81230;BME280;70701;44.452;18.652;2023-08-20T06:57:10;99425.97;;;22.84;73.76
81230;BME280;70701;44.452;18.652;2023-08-20T06:59:36;99433.19;;;22.91;73.87
81230;BME280;70701;44.452;18.652;2023-08-20T07:02:02;99438.88;;;22.97;73.89
81230;BME280;70701;44.452;18.652;2023-08-20T07:04:30;99449.03;;;23.09;73.52
81230;BME280;70701;44.452;18.652;2023-08-20T07:06:55;99420.63;;;23.20;73.03
81230;BME280;70701;44.452;18.652;2023-08-20T07:09:21;99446.47;;;23.28;72.92
81230;BME280;70701;44.452;18.652;2023-08-20T07:11:47;99420.13;;;23.39;72.00
81230;BME280;70701;44.452;18.652;2023-08-20T07:14:12;99440.03;;;23.50;71.96
81230;BME280;70701;44.452;18.652;2023-08-20T07:16:38;99439.47;;;23.23;72.64
81230;BME280;70701;44.452;18.652;2023-08-20T07:19:04;99443.03;;;22.96;74.38
81230;BME280;70701;44.452;18.652;2023-08-20T07:21:29;99444.91;;;23.27;73.09
81230;BME280;70701;44.452;18.652;2023-08-20T07:23:55;99426.84;;;23.53;72.26
81230;BME280;70701;44.452;18.652;2023-08-20T07:26:21;99427.06;;;23.77;71.44
81230;BME280;70701;44.452;18.652;2023-08-20T07:28:47;99437.44;;;23.86;71.40
81230;BME280;70701;44.452;18.652;2023-08-20T07:31:23;99427.06;;;23.94;71.03
81230;BME280;70701;44.452;18.652;2023-08-20T07:33:49;99438.44;;;23.77;71.89
81230;BME280;70701;44.452;18.652;2023-08-20T07:36:16;99442.56;;;23.54;72.75
81230;BME280;70701;44.452;18.652;2023-08-20T07:38:42;99442.34;;;23.80;72.35
81230;BME280;70701;44.452;18.652;2023-08-20T07:41:11;99444.38;;;23.74;72.90
81230;BME280;70701;44.452;18.652;2023-08-20T07:43:38;99422.94;;;23.67;72.58
81230;BME280;70701;44.452;18.652;2023-08-20T07:46:05;99431.97;;;23.77;72.52
81230;BME280;70701;44.452;18.652;2023-08-20T07:48:31;99443.88;;;23.70;72.97
81230;BME280;70701;44.452;18.652;2023-08-20T07:50:57;99437.44;;;23.24;74.96
81230;BME280;70701;44.452;18.652;2023-08-20T07:53:23;99449.06;;;23.71;73.35
81230;BME280;70701;44.452;18.652;2023-08-20T07:55:48;99429.16;;;23.54;73.41
81230;BME280;70701;44.452;18.652;2023-08-20T07:58:14;99443.63;;;23.34;74.32
81230;BME280;70701;44.452;18.652;2023-08-20T08:00:40;99434.59;;;23.69;73.47
81230;BME280;70701;44.452;18.652;2023-08-20T08:03:06;99446.72;;;23.92;72.40
81230;BME280;70701;44.452;18.652;2023-08-20T08:05:32;99432.00;;;23.82;72.64
81230;BME280;70701;44.452;18.652;2023-08-20T08:07:57;99443.88;;;23.86;72.55
81230;BME280;70701;44.452;18.652;2023-08-20T08:10:23;99444.16;;;23.60;73.09
81230;BME280;70701;44.452;18.652;2023-08-20T08:12:49;99453.44;;;23.55;73.46
81230;BME280;70701;44.452;18.652;2023-08-20T08:15:14;99438.16;;;24.03;71.78
81230;BME280;70701;44.452;18.652;2023-08-20T08:17:40;99442.88;;;23.90;72.01
81230;BME280;70701;44.452;18.652;2023-08-20T08:20:07;99446.91;;;24.22;71.12
81230;BME280;70701;44.452;18.652;2023-08-20T08:22:33;99448.66;;;24.48;70.25
81230;BME280;70701;44.452;18.652;2023-08-20T08:24:58;99429.72;;;24.56;69.41
81230;BME280;70701;44.452;18.652;2023-08-20T08:27:24;99441.81;;;24.74;69.25
81230;BME280;70701;44.452;18.652;2023-08-20T08:29:50;99447.09;;;24.53;70.26
81230;BME280;70701;44.452;18.652;2023-08-20T08:32:16;99440.59;;;24.58;70.36
81230;BME280;70701;44.452;18.652;2023-08-20T08:34:41;99430.53;;;24.45;70.40
81230;BME280;70701;44.452;18.652;2023-08-20T08:37:07;99443.47;;;24.47;70.72
81230;BME280;70701;44.452;18.652;2023-08-20T08:39:33;99445.56;;;24.99;69.23
81230;BME280;70701;44.452;18.652;2023-08-20T08:42:01;99428.84;;;25.20;67.86
81230;BME280;70701;44.452;18.652;2023-08-20T08:44:31;99440.59;;;25.05;68.18
81230;BME280;70701;44.452;18.652;2023-08-20T08:47:07;99451.13;;;25.27;68.21
81230;BME280;70701;44.452;18.652;2023-08-20T08:49:33;99440.34;;;25.45;67.37
81230;BME280;70701;44.452;18.652;2023-08-20T08:51:59;99433.59;;;25.48;67.36
81230;BME280;70701;44.452;18.652;2023-08-20T08:54:26;99449.19;;;25.71;66.73
81230;BME280;70701;44.452;18.652;2023-08-20T08:56:52;99433.31;;;25.51;67.39
81230;BME280;70701;44.452;18.652;2023-08-20T08:59:19;99436.44;;;25.48;67.80
81230;BME280;70701;44.452;18.652;2023-08-20T09:01:44;99439.75;;;25.82;66.61
81230;BME280;70701;44.452;18.652;2023-08-20T09:04:10;99442.34;;;25.55;66.78
81230;BME280;70701;44.452;18.652;2023-08-20T09:06:51;99438.53;;;25.47;67.21
81230;BME280;70701;44.452;18.652;2023-08-20T09:09:18;99442.81;;;25.29;68.24
81230;BME280;70701;44.452;18.652;2023-08-20T09:11:50;99441.00;;;25.62;67.48
81230;BME280;70701;44.452;18.652;2023-08-20T09:14:23;99440.94;;;25.98;66.06
81230;BME280;70701;44.452;18.652;2023-08-20T09:17:00;99440.56;;;25.77;66.91
81230;BME280;70701;44.452;18.652;2023-08-20T09:19:35;99443.13;;;25.80;67.04
81230;BME280;70701;44.452;18.652;2023-08-20T09:22:01;99444.13;;;25.58;67.60
81230;BME280;70701;44.452;18.652;2023-08-20T09:24:33;99422.84;;;25.29;68.15
81230;BME280;70701;44.452;18.652;2023-08-20T09:27:03;99436.44;;;25.48;67.35
81230;BME280;70701;44.452;18.652;2023-08-20T09:29:46;99428.88;;;25.80;66.78
81230;BME280;70701;44.452;18.652;2023-08-20T09:32:20;99419.03;;;26.31;64.91
81230;BME280;70701;44.452;18.652;2023-08-20T09:34:48;99433.41;;;26.44;64.54
81230;BME280;70701;44.452;18.652;2023-08-20T09:37:15;99434.78;;;26.37;64.59
81230;BME280;70701;44.452;18.652;2023-08-20T09:39:41;99432.56;;;26.49;64.25
81230;BME280;70701;44.452;18.652;2023-08-20T09:42:08;99422.44;;;26.73;63.09
81230;BME280;70701;44.452;18.652;2023-08-20T09:44:36;99437.00;;;27.07;62.78
81230;BME280;70701;44.452;18.652;2023-08-20T09:47:05;99424.47;;;27.29;61.99
81230;BME280;70701;44.452;18.652;2023-08-20T09:49:35;99428.13;;;27.11;62.47
81230;BME280;70701;44.452;18.652;2023-08-20T09:52:04;99406.44;;;26.83;62.85
81230;BME280;70701;44.452;18.652;2023-08-20T09:55:00;99425.81;;;26.71;64.08
81230;BME280;70701;44.452;18.652;2023-08-20T09:57:41;99422.50;;;26.86;63.57
81230;BME280;70701;44.452;18.652;2023-08-20T10:00:10;99399.63;;;27.05;62.71
81230;BME280;70701;44.452;18.652;2023-08-20T10:02:41;99405.59;;;27.40;61.63
81230;BME280;70701;44.452;18.652;2023-08-20T10:05:08;99421.88;;;26.93;63.07
81230;BME280;70701;44.452;18.652;2023-08-20T10:07:35;99415.44;;;26.49;65.18
81230;BME280;70701;44.452;18.652;2023-08-20T10:10:06;99397.81;;;26.26;65.11
81230;BME280;70701;44.452;18.652;2023-08-20T10:12:33;99406.19;;;26.81;64.24
81230;BME280;70701;44.452;18.652;2023-08-20T10:15:00;99406.19;;;27.00;63.16
81230;BME280;70701;44.452;18.652;2023-08-20T10:17:29;99408.78;;;27.17;62.95
81230;BME280;70701;44.452;18.652;2023-08-20T10:19:57;99417.13;;;27.34;62.45
81230;BME280;70701;44.452;18.652;2023-08-20T10:22:32;99401.38;;;27.27;62.45
81230;BME280;70701;44.452;18.652;2023-08-20T10:24:59;99390.66;;;27.47;61.15
81230;BME280;70701;44.452;18.652;2023-08-20T10:27:35;99398.94;;;27.77;60.70
81230;BME280;70701;44.452;18.652;2023-08-20T10:30:01;99399.16;;;27.66;60.76
81230;BME280;70701;44.452;18.652;2023-08-20T10:32:46;99406.22;;;27.65;61.00
81230;BME280;70701;44.452;18.652;2023-08-20T10:35:15;99371.25;;;27.40;61.28
81230;BME280;70701;44.452;18.652;2023-08-20T10:48:32;99389.38;;;27.75;60.76
81230;BME280;70701;44.452;18.652;2023-08-20T10:51:31;99396.28;;;27.66;60.87
81230;BME280;70701;44.452;18.652;2023-08-20T10:57:03;99379.16;;;28.19;59.25
81230;BME280;70701;44.452;18.652;2023-08-20T10:59:30;99380.09;;;27.68;60.19
81230;BME280;70701;44.452;18.652;2023-08-20T11:01:58;99391.75;;;27.89;59.51
81230;BME280;70701;44.452;18.652;2023-08-20T11:04:31;99385.47;;;28.18;59.00
81230;BME280;70701;44.452;18.652;2023-08-20T11:07:00;99380.47;;;28.45;58.27
81230;BME280;70701;44.452;18.652;2023-08-20T11:09:28;99374.38;;;28.62;57.94
81230;BME280;70701;44.452;18.652;2023-08-20T11:11:54;99370.66;;;28.54;57.88
81230;BME280;70701;44.452;18.652;2023-08-20T11:14:21;99382.44;;;28.50;58.28
81230;BME280;70701;44.452;18.652;2023-08-20T11:16:51;99373.13;;;28.36;58.83
81230;BME280;70701;44.452;18.652;2023-08-20T11:19:24;99366.91;;;28.45;58.68
81230;BME280;70701;44.452;18.652;2023-08-20T11:21:51;99356.66;;;28.63;57.95
81230;BME280;70701;44.452;18.652;2023-08-20T11:24:17;99356.19;;;28.73;57.65
81230;BME280;70701;44.452;18.652;2023-08-20T11:26:46;99364.28;;;28.61;58.15
81230;BME280;70701;44.452;18.652;2023-08-20T11:29:14;99361.44;;;28.07;59.79
81230;BME280;70701;44.452;18.652;2023-08-20T11:31:50;99366.91;;;28.45;58.81
81230;BME280;70701;44.452;18.652;2023-08-20T11:34:18;99344.50;;;28.71;57.69
81230;BME280;70701;44.452;18.652;2023-08-20T11:36:44;99370.47;;;29.07;57.05
81230;BME280;70701;44.452;18.652;2023-08-20T11:39:09;99352.84;;;29.03;56.33
81230;BME280;70701;44.452;18.652;2023-08-20T11:41:36;99365.66;;;29.02;57.07
81230;BME280;70701;44.452;18.652;2023-08-20T11:44:02;99367.78;;;28.67;57.58
81230;BME280;70701;44.452;18.652;2023-08-20T11:46:31;99372.00;;;28.87;57.07
81230;BME280;70701;44.452;18.652;2023-08-20T11:49:04;99369.31;;;29.23;56.49
81230;BME280;70701;44.452;18.652;2023-08-20T11:51:35;99365.81;;;29.38;56.25
81230;BME280;70701;44.452;18.652;2023-08-20T11:54:04;99360.28;;;29.40;56.01
81230;BME280;70701;44.452;18.652;2023-08-20T11:56:30;99364.00;;;29.27;56.09
81230;BME280;70701;44.452;18.652;2023-08-20T11:58:59;99357.56;;;29.35;56.40
81230;BME280;70701;44.452;18.652;2023-08-20T12:01:29;99353.00;;;29.39;55.98
81230;BME280;70701;44.452;18.652;2023-08-20T12:04:00;99357.19;;;29.59;54.98
81230;BME280;70701;44.452;18.652;2023-08-20T12:06:26;99352.25;;;29.18;56.32
81230;BME280;70701;44.452;18.652;2023-08-20T12:08:55;99351.09;;;29.13;56.85
81230;BME280;70701;44.452;18.652;2023-08-20T12:11:24;99351.75;;;29.48;56.17
81230;BME280;70701;44.452;18.652;2023-08-20T12:13:50;99347.03;;;29.79;55.53
81230;BME280;70701;44.452;18.652;2023-08-20T12:16:16;99337.66;;;29.79;55.69
81230;BME280;70701;44.452;18.652;2023-08-20T12:18:42;99351.75;;;29.98;54.93
81230;BME280;70701;44.452;18.652;2023-08-20T12:21:08;99339.66;;;29.99;53.90
81230;BME280;70701;44.452;18.652;2023-08-20T12:23:34;99343.88;;;29.70;53.06
81230;BME280;70701;44.452;18.652;2023-08-20T12:25:59;99334.59;;;29.56;54.55
81230;BME280;70701;44.452;18.652;2023-08-20T12:28:25;99327.19;;;29.89;53.81
81230;BME280;70701;44.452;18.652;2023-08-20T12:30:51;99329.41;;;30.12;52.49
81230;BME280;70701;44.452;18.652;2023-08-20T12:33:17;99323.63;;;30.04;51.41
81230;BME280;70701;44.452;18.652;2023-08-20T12:35:43;99300.53;;;30.17;50.97
81230;BME280;70701;44.452;18.652;2023-08-20T12:38:08;99280.34;;;30.02;51.18
81230;BME280;70701;44.452;18.652;2023-08-20T12:40:34;99311.94;;;30.46;50.82
81230;BME280;70701;44.452;18.652;2023-08-20T12:42:59;99312.72;;;30.47;50.56
81230;BME280;70701;44.452;18.652;2023-08-20T12:45:25;99314.63;;;30.44;50.24
81230;BME280;70701;44.452;18.652;2023-08-20T12:47:51;99300.44;;;30.46;50.38
81230;BME280;70701;44.452;18.652;2023-08-20T12:50:16;99308.50;;;30.48;49.97
81230;BME280;70701;44.452;18.652;2023-08-20T12:52:42;99291.09;;;30.61;49.09
81230;BME280;70701;44.452;18.652;2023-08-20T12:55:08;99293.91;;;30.38;49.86
81230;BME280;70701;44.452;18.652;2023-08-20T12:57:35;99292.47;;;30.75;49.37
81230;BME280;70701;44.452;18.652;2023-08-20T13:00:03;99299.81;;;30.99;48.98
81230;BME280;70701;44.452;18.652;2023-08-20T13:02:37;99288.31;;;31.15;48.14
81230;BME280;70701;44.452;18.652;2023-08-20T13:05:03;99297.16;;;31.09;48.12
81230;BME280;70701;44.452;18.652;2023-08-20T13:07:30;99297.16;;;31.09;47.99
81230;BME280;70701;44.452;18.652;2023-08-20T13:09:56;99265.88;;;31.21;47.76
81230;BME280;70701;44.452;18.652;2023-08-20T13:12:24;99289.88;;;31.24;47.84
81230;BME280;70701;44.452;18.652;2023-08-20T13:14:52;99290.41;;;31.37;47.76